Stitzer, Wisconsin
Current Conditions -  °F | °C
As of 7:43 PM on Monday 22 Dec 2014 (Local Time) from KOVS Reporting Station
Haze Haze  
Wind Chill: 32°   Ceiling: 600
Heat Index: 36°   Visibility: 2mi
Dew Point: 34°   Wind: 5mph
Humidity: 93%   Direction: NA
Pressure: 29.61"   Gusts: NA
Location:  42.93°N, 90.62°W
Report Text: KOVS 230143Z AUTO VRB04KT 2SM BR OVC006 02/01 A2961 RMK AO2 T00220011
Loading
Personal Weather Stations






























Interactive Weather Map New forecast layout! Learn more

10-Day Weather Forecast

Advertisements
Track Severe Weather on mobile